createdAt,value
2023-01-04T08:42:39.798Z,99690.51
2023-01-04T09:02:26.417Z,99653.77
2023-01-04T09:10:10.119Z,99662.13
2023-01-04T09:39:24.221Z,99628.40
2023-01-04T10:04:49.225Z,99583.15
2023-01-04T10:09:50.767Z,99568.69
2023-01-04T10:14:52.356Z,99553.59
2023-01-04T11:36:59.425Z,99472.21
2023-01-04T11:42:04.431Z,99461.81
2023-01-04T11:47:19.439Z,99449.13
2023-01-04T11:52:28.907Z,99446.33
2023-01-04T11:57:30.622Z,99448.27
2023-01-04T12:03:00.325Z,99434.45
2023-01-04T12:07:54.029Z,99426.27
2023-01-04T12:12:59.615Z,99420.06
2023-01-04T12:18:28.084Z,99406.27
2023-01-04T12:23:30.712Z,99389.38
2023-01-04T12:28:39.966Z,99380.08
2023-01-04T12:33:41.679Z,99374.23
2023-01-04T12:38:52.317Z,99360.34
2023-01-04T12:43:54.021Z,99356.91
2023-01-04T12:49:04.759Z,99339.05
2023-01-04T12:54:23.902Z,99322.80
2023-01-04T12:59:55.181Z,99310.88
2023-01-04T13:10:51.609Z,99297.73
2023-01-04T13:16:11.716Z,99281.64
2023-01-04T13:21:33.199Z,99269.07
2023-01-04T13:26:46.000Z,99244.14
2023-01-04T13:31:55.656Z,99241.81
2023-01-04T13:37:13.652Z,99227.46
2023-01-04T13:42:32.379Z,99219.52
2023-01-04T13:47:40.736Z,99206.27
2023-01-04T13:52:58.353Z,99196.27
2023-01-04T13:58:06.669Z,99192.28
2023-01-04T14:03:29.818Z,99201.84
2023-01-04T14:08:40.774Z,99203.25
2023-01-04T14:13:48.130Z,99192.23
2023-01-04T14:18:49.835Z,99177.04
2023-01-04T14:23:51.480Z,99168.77
2023-01-04T14:28:53.090Z,99146.70
2023-01-04T14:33:55.214Z,99152.83
2023-01-04T14:39:10.221Z,99136.11
2023-01-04T14:44:16.198Z,99136.74
2023-01-04T14:49:19.962Z,99138.52
2023-01-04T14:54:25.348Z,99137.34
2023-01-04T14:59:28.275Z,99129.77
2023-01-04T15:04:30.197Z,99116.08
2023-01-04T15:09:32.068Z,99100.33
2023-01-04T15:14:34.463Z,99091.65
2023-01-04T15:19:38.292Z,99089.27
2023-01-04T15:24:40.210Z,99086.98
2023-01-04T15:29:41.913Z,99076.08
2023-01-04T15:34:47.010Z,99065.91
2023-01-04T15:39:49.111Z,99058.55
2023-01-04T15:44:50.739Z,99043.16
2023-01-04T15:49:52.330Z,99024.05
2023-01-04T15:54:54.009Z,99032.14
2023-01-04T15:59:55.635Z,99018.01
2023-01-04T16:04:57.247Z,99023.27
2023-01-04T16:09:59.096Z,99014.39
2023-01-04T16:15:01.095Z,99031.51
2023-01-04T16:20:03.550Z,99027.29
2023-01-04T16:25:11.326Z,99007.86
2023-01-04T16:30:14.096Z,98983.24
2023-01-04T16:35:15.866Z,98959.94
2023-01-04T16:40:17.530Z,98960.65
2023-01-04T16:45:19.519Z,98956.08
2023-01-04T16:50:21.194Z,98945.52
2023-01-04T16:55:24.285Z,98946.70
2023-01-04T17:00:26.165Z,98930.46
2023-01-04T17:05:27.799Z,98927.34
2023-01-04T17:10:29.960Z,98906.92
2023-01-04T17:15:42.942Z,98900.70
2023-01-04T17:20:53.276Z,98896.84
2023-01-04T17:26:00.017Z,98903.36
2023-01-04T17:31:08.266Z,98895.16
2023-01-04T17:36:12.798Z,98875.55
2023-01-04T17:41:16.174Z,98866.29
2023-01-04T17:46:23.202Z,98862.76
2023-01-04T17:51:26.137Z,98855.13
2023-01-04T17:56:29.847Z,98840.14
2023-01-04T18:01:33.304Z,98824.32
2023-01-04T18:06:36.987Z,98826.33
2023-01-04T18:11:38.774Z,98818.56
2023-01-04T18:16:57.016Z,98806.39
2023-01-04T18:21:59.434Z,98795.86
2023-01-04T18:27:20.887Z,98801.76
2023-01-04T18:32:24.927Z,98793.80
2023-01-04T18:37:26.656Z,98793.50
2023-01-04T18:42:31.142Z,98782.39
2023-01-04T18:47:33.065Z,98786.21
2023-01-04T18:52:35.655Z,98779.63
2023-01-04T18:57:38.391Z,98777.44
2023-01-04T19:02:40.337Z,98777.89
2023-01-04T19:07:42.128Z,98771.33
2023-01-04T19:12:43.845Z,98761.85
2023-01-04T19:17:45.554Z,98744.88
2023-01-04T19:22:47.316Z,98737.11
2023-01-04T19:27:49.000Z,98719.36
2023-01-04T19:32:50.643Z,98717.05
2023-01-04T19:37:52.332Z,98705.67
2023-01-04T19:42:54.158Z,98689.59
2023-01-04T19:47:56.059Z,98684.71
2023-01-04T19:52:57.730Z,98684.38
2023-01-04T19:57:59.576Z,98687.09
2023-01-04T20:03:01.541Z,98687.80
2023-01-04T20:08:03.472Z,98694.11
2023-01-04T20:13:05.151Z,98700.58
2023-01-04T20:18:11.930Z,98695.33
2023-01-04T20:23:16.520Z,98681.80
2023-01-04T20:28:20.250Z,98666.23
2023-01-04T20:33:22.022Z,98661.19
2023-01-04T20:38:23.921Z,98657.81
2023-01-04T20:43:34.819Z,98659.40
2023-01-04T20:48:36.609Z,98656.90
2023-01-04T20:53:38.711Z,98639.05
2023-01-04T20:58:40.539Z,98633.10
2023-01-04T21:03:43.000Z,98599.56
2023-01-04T21:08:45.774Z,98625.66
2023-01-04T21:13:49.411Z,98613.73
2023-01-04T21:18:51.051Z,98595.66
2023-01-04T21:23:57.756Z,98585.80
2023-01-04T21:28:59.885Z,98598.61
2023-01-04T21:34:04.391Z,98591.71
2023-01-04T21:39:08.533Z,98598.73
2023-01-04T21:44:10.191Z,98591.27
2023-01-04T21:49:12.629Z,98567.80
2023-01-04T21:54:14.275Z,98549.06
2023-01-04T21:59:16.493Z,98537.55
2023-01-04T22:04:18.216Z,98538.10
2023-01-04T22:09:21.193Z,98536.70
2023-01-04T22:14:24.540Z,98531.44
2023-01-04T22:19:26.672Z,98541.27
2023-01-04T22:24:31.459Z,98543.80
2023-01-04T22:29:38.296Z,98539.09
2023-01-04T22:34:46.158Z,98528.71
2023-01-04T22:39:47.820Z,98523.42
2023-01-04T22:44:49.732Z,98521.17
2023-01-04T22:49:51.422Z,98510.29
2023-01-04T22:54:53.155Z,98488.05
2023-01-04T22:59:54.870Z,98509.80
2023-01-04T23:04:56.519Z,98495.52
2023-01-04T23:09:58.321Z,98485.01
2023-01-04T23:15:00.495Z,98471.91
2023-01-04T23:20:05.338Z,98461.16
2023-01-04T23:25:11.306Z,98450.06
2023-01-04T23:30:14.889Z,98432.17
2023-01-04T23:35:16.650Z,98406.62
2023-01-04T23:40:18.344Z,98403.30
2023-01-04T23:45:20.044Z,98406.14
2023-01-04T23:50:22.230Z,98404.61
2023-01-04T23:55:23.911Z,98396.30
